SiktMolnbas
>≥ 10km≥ 10km ≥ 2000ft≥ 2000ft
< 10km< 10km < 2000ft< 2000ft
< 8km< 8km < 1500ft< 1500ft
< 5km< 5km < 1000ft< 1000ft
< 3km< 3km < 500ft< 500ft

Nytt 18 jan 2017:

Nytt 17 jan 2017:

ESNQ (04:50 UTC)

Kiruna flygplats

METAR

ESNQ 070450Z AUTO 36003KT 9999 BKN035/// OVC120/// 09/05 Q0994=

TAF

Ingen TAF hittades.

ESNG (04:50 UTC)

Gällivare (Kavaheden), Lapland Airport

METAR

ESNG 070450Z 33007KT CAVOK 13/04 Q0994=

TAF

ESNG 070230Z 0703/0712 VRB02KT CAVOK=

ESPA (04:50 UTC)

Luleå Airport (Kallax)

METAR

ESPA 070450Z VRB02KT 9999 FEW009 BKN042 13/11 Q0993=

TAF

SHRACB

ESPA 070330Z 0704/0712 VRB02KT 9999 FEW012 BKN025 TEMPO 0704/0712 4000 SHRA BKN012 BKN025CB=

ESNL (04:50 UTC)

Lycksele flygplats

METAR

ESNL 070450Z AUTO 29003KT 260V320 9999 FEW038/// OVC062/// 10/09 Q0994=

TAF

Ingen TAF hittades.

ESNU (04:50 UTC)

Umeå City Airport

METAR

ESNU 070450Z AUTO 34009KT 9999 FEW009/// OVC012/// 12/10 Q0993=

TAF

ESNU AMD 070320Z 0703/0712 34005KT 9999 BKN008 BECMG 0703/0705 BKN030=

ESNO (04:50 UTC)

Örnsköldsvik flygplats

METAR

RA

ESNO 070450Z AUTO 31007KT 9999 -RA FEW015/// OVC038/// 12/09 Q0994=

TAF

Ingen TAF hittades.

ESNK (04:50 UTC)

Kramfors-Sollefteå flygplats

METAR

RA

ESNK 070450Z AUTO 32009KT 9999 -RA BKN024/// OVC051/// 11/09 Q0995 REDZ=

TAF

Ingen TAF hittades.

ESNN (04:50 UTC)

Sundsvall-Härnösands flygplats (Midlanda)

METAR

DZ

ESNN 070450Z AUTO 31012KT 9999 R16///// R34/P2000N DZ FEW026/// OVC059/// 11/08 Q0996 REDZ=

TAF

Ingen TAF hittades.

ESNZ (04:50 UTC)

Åre Östersund Airport (Frösön)

METAR

ESNZ 070450Z AUTO 30013KT 9999 OVC021/// 08/05 Q0998=

TAF

Ingen TAF hittades.

ESNS (04:50 UTC)

Skellefteå flygplats

METAR

ESNS 070450Z AUTO 01004KT 310V050 9999 SCT008/// BKN016/// 12/10 Q0993=

TAF

Ingen TAF hittades.

ESGT (04:50 UTC)

Trollhättan-Vänersborgs flygplats (Malöga flygplats)

METAR

ESGT 070450Z AUTO 23008KT 9999 R15/P2000N R33///// FEW032/// 13/07 Q1005=

TAF

Ingen TAF hittades.

ESGG (04:50 UTC)

Göteborg-Landvetter flygplats

METAR

ESGG 070450Z 27012G24KT 9999 BKN021 11/07 Q1007=

TAF

TSSHRACB

ESGG 062330Z 0700/0724 26012KT 9999 SCT045 TEMPO 0705/0713 25015G25KT SHRA BKN020CB PROB40 0713/0724 25015G25KT TSRA BKN025CB=

ESMT (04:50 UTC)

Halmstads flygplats

METAR

ESMT 070450Z AUTO 30018KT 9999 FEW024/// SCT030/// BKN038/// 13/09 Q1009=

TAF

TCU

ESMT 070332Z 0704/0709 29015KT 9999 SCT030 TEMPO 0704/0709 27018G28KT SCT020TCU=

ESTA (04:50 UTC)

Ängelholm-Helsingborg flygplats

METAR

ESTA 070450Z AUTO 28019KT 9999 FEW008/// BKN024/// OVC045/// 13/09 Q1010 RERA=

TAF

Ingen TAF hittades.

ESTL (04:50 UTC)

Ljungbyheds flygplats

METAR

ESTL 070450Z AUTO 28016KT 9999 FEW027/// BKN054/// 13/09 Q1010=

TAF

Ingen TAF hittades.

ESMS (04:50 UTC)

Malmö Airport

METAR

ESMS 070450Z 29013KT 9999 SCT031 SCT051 13/07 Q1012=

TAF

SHRACBTCU

ESMS 062308Z 0700/0724 27012KT 9999 SCT030 TEMPO 0700/0712 27015G25KT FEW020TCU TEMPO 0712/0719 25015G28KT 4000 SHRA SCT012 BKN020CB TEMPO 0719/0724 FEW020TCU=

ESMK (04:50 UTC)

Kristianstad Airport

METAR

ESMK 070450Z AUTO 28014KT 9999 NCD 13/08 Q1010=

TAF

Ingen TAF hittades.

ESDF (04:50 UTC)

Ronneby flygplats

METAR

ESDF 070450Z 26008KT 9999 FEW020 12/10 Q1008=

TAF

Ingen TAF hittades.

ESMQ (04:50 UTC)

Kalmar Airport

METAR

ESMQ 070450Z AUTO 25013KT 9999 SCT022/// 14/10 Q1006=

TAF

Ingen TAF hittades.

ESMX (04:50 UTC)

Växjö, Smaland Airport

METAR

ESMX 070450Z AUTO 26010KT 9999 SCT019/// 12/09 Q1007=

TAF

Ingen TAF hittades.

ESGJ (04:50 UTC)

Jönköping Airport

METAR

ESGJ 070450Z AUTO 25012KT 9999 NCD 11/08 Q1006=

TAF

Ingen TAF hittades.

ESSA (04:50 UTC)

Stockholm-Arlanda flygplats

METAR

ESSA 070450Z 26012KT 9999 FEW031 BKN051 11/08 Q0998 NOSIG=

TAF

SHRACBTCU

ESSA 062330Z 0700/0724 27010KT 9999 SCT012 BKN030 PROB40 0700/0702 BKN012 PROB40 0711/0713 SCT040TCU PROB40 0713/0718 SHRA BKN045CB=

ESSB (04:50 UTC)

Stockholm-Bromma flygplats

METAR

ESSB 070450Z AUTO 25009KT 9999 FEW025/// BKN040/// 13/10 Q1000=

TAF

ESSB 070230Z 0703/0712 26008KT 9999 BKN030=

ESKN (04:50 UTC)

Stockholm-Skavsta flygplats

METAR

ESKN 070450Z 27010KT CAVOK 12/09 Q1001=

TAF

SHRACBTCU

ESKN 062330Z 0700/0724 25010KT 9999 SCT020 PROB40 0700/0704 2000 MIFG PROB40 0710/0712 SCT045TCU PROB40 0712/0718 SHRA SCT045CB=

ESSP (04:50 UTC)

Norrköping flygplats

METAR

ESSP 070450Z AUTO 26011KT 9999 NCD 13/09 Q1002=

TAF

Ingen TAF hittades.

ESSL (04:50 UTC)

Linköping - SAAB Flygplats

METAR

ESSL 070450Z AUTO 26010KT 230V290 9999 BKN074/// 14/10 Q1003=

TAF

Ingen TAF hittades.

ESSV (04:50 UTC)

Visby flygplats

METAR

ESSV 070450Z 26015KT CAVOK 15/10 Q1003=

TAF

ESSV 070230Z 0703/0712 26015KT 9999 FEW025=

ESOW (04:50 UTC)

Stockholm-Västerås flygplats

METAR

ESOW 070450Z AUTO 28007KT 240V310 9999 NCD 13/07 Q1000=

TAF

Ingen TAF hittades.

ESOE (04:50 UTC)

Örebro flygplats

METAR

ESOE 070450Z AUTO 27007KT 240V300 9999 OVC098/// 13/08 Q1002=

TAF

ESOE 070230Z 0702/0708 27007KT CAVOK=

ESOK (04:50 UTC)

Karlstad Airport

METAR

ESOK 070450Z AUTO 23004KT 9999 R03/P1500N R21///// ////// 12/09 Q1002=

TAF

Ingen TAF hittades.

ESSD (04:50 UTC)

Borlänge, Dala Airport

METAR

ESSD 070450Z AUTO 27009KT 9999 SCT074/// BKN110/// OVC140/// 11/07 Q0999=

TAF

Ingen TAF hittades.

ESGR (04:50 UTC)

Skövde flygplats

METAR

ESGR 070450Z AUTO /////KT 9999 FEW061/// 12/09 Q1004=

TAF

Ingen TAF hittades.

ESIB (04:50 UTC)

Såtenäs

METAR

ESIB 070450Z AUTO 26013KT 9999 NCD 13/09 Q1005=

TAF

Ingen TAF hittades.

ESNV (04:50 UTC)

Vilhelmina flygplats

METAR

RA

ESNV 070450Z AUTO 29004KT 9999 -RA OVC079/// ///// Q0995=

TAF

Ingen TAF hittades.

ESST (04:50 UTC)

Torsby flygplats (Fryklanda)

METAR

ESST 070450Z AUTO 00000KT 9999 FEW090/// BKN110/// 11/07 Q1002=

TAF

Ingen TAF hittades.

ESUT (04:50 UTC)

Hemavans flygplats

METAR

ESUT 070450Z AUTO 31006KT 9999 BKN029/// 07/02 Q0997=

TAF

Ingen TAF hittades.

ESNX (04:50 UTC)

Arvidsjaur flygplats

METAR

ESNX 070450Z AUTO 30005KT 9999 FEW059/// OVC098/// 11/09 Q0993=

TAF

Ingen TAF hittades.

ESIA (04:50 UTC)

Karlsborg

METAR

ESIA 070450Z AUTO 26010KT 9999 BKN060/// 12/09 Q1003=

TAF

Ingen TAF hittades.

ESUP (04:50 UTC)

Pajala

METAR

ESUP 070450Z AUTO 01006KT 330V060 9999 NCD 13/08 Q0994=

TAF

Ingen TAF hittades.

ESKM (04:50 UTC)

Mora/Siljan

METAR

ESKM 070450Z AUTO 26004KT 9999 R16/P2000N R34///// ///////// 10/07 Q1000=

TAF

Ingen TAF hittades.

EKRN (04:50 UTC)

Bornholm Airport

METAR

EKRN 070450Z AUTO 29017KT 9999 OVC030/// 14/08 Q1012=

TAF

TCU

EKRN 070413Z 0704/0712 29018KT 9999 BKN030 TEMPO 0704/0712 27020G30KT SCT020TCU=

EFIV (04:50 UTC)

Ivalo Airport

METAR

RA

EFIV 070450Z AUTO 21005KT 9999 -RA NSC 09/08 Q0994=

TAF

Ingen TAF hittades.

EFKT (04:50 UTC)

Kittilä Airport

METAR

EFKT 070450Z AUTO VRB02KT CAVOK 13/08 Q0994=

TAF

Ingen TAF hittades.

EFRO (04:50 UTC)

Rovaniemi Airport

METAR

EFRO 070450Z AUTO 19007KT 160V230 9999 OVC004 11/10 Q0995=

TAF

TSSHRACB

EFRO AMD 070409Z 0704/0803 17009KT 9999 BKN002 BECMG 0704/0706 BKN005 BECMG 0706/0707 BKN020 TEMPO 0707/0721 7000 SHRA SCT020CB PROB30 0712/0718 16015G25KT TSRA BECMG 0801/0803 BKN003=

EFKE (04:50 UTC)

Kemi-Tornio Airport

METAR

EFKE 070450Z AUTO 17007KT 140V200 9999 FEW011 OVC048 13/11 Q0994=

TAF

Ingen TAF hittades.

EFKS (04:50 UTC)

Kuusamo Airport

METAR

EFKS 070450Z AUTO 20010KT 180V240 9999 BKN014 12/09 Q0997=

TAF

Ingen TAF hittades.

EFOU (04:50 UTC)

Oulu Airport

METAR

EFOU 070450Z AUTO 15007KT 120V180 9999 FEW047 13/11 Q0995=

TAF

SHRACB

EFOU 070228Z 0703/0803 18007KT 9999 SCT040 TEMPO 0708/0718 7000 SHRA SCT035CB PROB40 0709/0718 +TSRA=

EFKI (04:50 UTC)

Kajaani Airport

METAR

EFKI 070450Z AUTO 19010KT 150V230 9999 FEW016 14/10 Q0997=

TAF

Ingen TAF hittades.

EFKK (04:50 UTC)

Kokkola-Pietarsaari/Kruunupyy Airport

METAR

EFKK 070450Z AUTO 15009KT 120V180 9999 BKN010 12/11 Q0993=

TAF

Ingen TAF hittades.

EFVA (04:50 UTC)

Vaasa Airport

METAR

SHRA

EFVA 070450Z AUTO 19003KT 9999 -SHRA FEW007 //////CB 12/11 Q0993 RESHRA=

TAF

SHRACB

EFVA AMD 070250Z 0703/0803 16009KT 9999 BKN015 TEMPO 0703/0709 6000 SHRA BKN008 SCT040CB PROB30 TEMPO 0703/0709 +TSRA BECMG 0709/0711 25010KT TEMPO 0709/0713 FEW040CB=

EFKU (04:50 UTC)

Kuopio Airport

METAR

EFKU 070450Z AUTO 17014KT 130V200 9999 SCT018 15/10 Q0999=

TAF

CB

EFKU 070226Z 0703/0803 18012KT CAVOK TEMPO 0705/0713 18015G25KT TEMPO 0713/0718 FEW040CB=

EFJY (04:50 UTC)

Jyväskylä Airport

METAR

EFJY 070450Z AUTO 16011KT 9999 OVC017 14/10 Q0997=

TAF

Ingen TAF hittades.

EFTP (04:50 UTC)

Tampere-Pirkkala Airport

METAR

EFTP 070450Z AUTO 18010KT 140V220 9999 FEW006 OVC042 13/12 Q0996=

TAF

CB

EFTP AMD 070422Z 0704/0803 18009KT 9999 SCT015 BKN050 TEMPO 0704/0708 BKN009 FEW040CB TEMPO 0708/0716 BKN014 FEW040CB=

EFPO (04:50 UTC)

Pori Airport

METAR

EFPO 070450Z AUTO 17006KT 9999 BKN007 14/13 Q0995=

TAF

SHRACB

EFPO 070231Z 0703/0712 18012KT 9999 BKN020 TEMPO 0703/0708 7000 SHRA BKN009 SCT030CB BECMG 0708/0710 27011KT TEMPO 0708/0712 7000 SHRA SCT030CB=

EFTU (04:50 UTC)

Turku Airport

METAR

EFTU 070450Z AUTO 22008KT 9999 OVC016 14/11 Q0996=

TAF

SHRACB

EFTU 070225Z 0703/0803 19004KT 9999 SCT011 BKN045 TEMPO 0703/0715 7000 SHRA BKN011 SCT020CB BECMG 0704/0706 23014KT BECMG 0719/0721 16004KT=

EFHK (04:50 UTC)

Helsinki-Vantaa Airport

METAR

SHRACB

EFHK 070450Z 17014KT 8000 -SHRA FEW011 BKN013 FEW020CB 14/12 Q0999 TEMPO FEW014 FEW020CB=

TAF

Ingen TAF hittades.

EFMA (04:50 UTC)

Mariehamn Airport

METAR

EFMA 070450Z AUTO 26007KT 210V300 9999 OVC014 13/10 Q0997=

TAF

CB

EFMA 070225Z 0703/0712 26007KT 9999 BKN031 TEMPO 0703/0712 BKN012 FEW025CB=

EKSB (04:50 UTC)

Sønderborg Airport

METAR

EKSB 070450Z 25006KT 210V290 9999 FEW015 12/08 Q1015=

TAF

SHRACBTCU

EKSB 070454Z 0705/0712 26010KT 9999 SCT030 TEMPO 0705/0709 FEW020TCU TEMPO 0709/0712 23015G25KT 4000 SHRA SCT012 BKN020CB=

EKSP (04:50 UTC)

Vojens Airport

METAR

EKSP 070450Z 26010KT 9999 FEW031 BKN055 12/09 Q1015 NOSIG=

TAF

SHRACBTCU

EKSP 070221Z 0703/0803 28012KT 9999 -SHRA FEW020TCU SCT040 BECMG 0706/0708 25012KT TEMPO 0708/0715 27015G25KT 4000 SHRA SCT012 BKN020CB=

EKEB (04:50 UTC)

Esbjerg Airport

METAR

SHRACB

EKEB 070450Z 26011KT 9999 -SHRA SCT020CB SCT030 13/09 Q1015=

TAF

SHRACBTCU

EKEB 070430Z 0704/0712 25012KT 9999 SCT030 TEMPO 0704/0707 SCT020TCU TEMPO 0707/0712 27015G25KT 4000 SHRA SCT012 BKN020CB=

EKYT (04:50 UTC)

Aalborg Airport

METAR

SHRA

EKYT 070450Z AUTO 26015KT 9999 -SHRA FEW021/// SCT038/// BKN050/// 12/10 Q1010=

TAF

SHRACB

EKYT 070221Z 0703/0803 26015KT 9999 SCT040 TEMPO 0703/0718 27015G30KT 4000 SHRA SCT012 BKN020CB TEMPO 0718/0803 -SHRA SCT020CB=

EKKA (04:50 UTC)

Karup Airport

METAR

CB

EKKA 070450Z 25010KT 9999 FEW020CB BKN050 12/09 Q1012=

TAF

SHRACB

EKKA 070221Z 0703/0803 28015KT 9999 SCT040 TEMPO 0705/0718 27015G28KT 4000 SHRA SCT012 BKN020CB TEMPO 0718/0803 -SHRA SCT020CB=

EKBI (04:50 UTC)

Billund Airport

METAR

EKBI 070450Z AUTO 24008KT 9999 FEW033/// BKN049/// 11/09 Q1014=

TAF

SHRACBTCU

EKBI 062308Z 0700/0724 27012KT 9999 SCT030 TEMPO 0700/0707 SCT020TCU TEMPO 0707/0714 25015G25KT 4000 SHRA SCT012 BKN020CB TEMPO 0714/0724 SCT020TCU=

EKVD (04:50 UTC)

Kolding Airport

METAR

EKVD 070450Z AUTO 26009KT //// ///////// 12/09 Q1015=

TAF

Ingen TAF hittades.

EKCH (04:50 UTC)

Copenhagen Airport, Kastrup

METAR

EKCH 070450Z AUTO 27013KT 9999 FEW023/// BKN043/// 13/09 Q1012 nosig=

TAF

SHRACBTCU

EKCH 062308Z 0700/0724 27012KT 9999 SCT030 TEMPO 0700/0711 27015G25KT FEW020TCU TEMPO 0711/0718 25018G30KT 4000 SHRA SCT012 BKN020CB TEMPO 0718/0724 FEW020TCU=

EKRK (04:50 UTC)

Copenhagen Airport, Roskilde

METAR

EKRK 070450Z AUTO 28010KT 9999 OVC026/// 12/08 Q1013=

TAF

SHRACBTCU

EKRK 070225Z 0703/0712 28012KT 9999 BKN030 TEMPO 0703/0710 27015G25KT FEW020TCU TEMPO 0710/0712 25018G30KT 4000 SHRA SCT012 BKN020CB=

ENRY (04:50 UTC)

Moss flygplats, Rygge

METAR

ENRY 070450Z AUTO 22006KT 9999NDV NCD 12/04 Q1003=

TAF

TSSHRACB

ENRY 062300Z 0700/0724 28008KT 9999 FEW040 BKN080 TEMPO 0710/0713 21010KT TEMPO 0711/0724 SHRA SCT025CB BKN030 PROB40 TEMPO 0712/0717 TS=

ENGM (04:50 UTC)

Oslo flygplats, Gardermoen

METAR

ENGM 070450Z VRB01KT CAVOK 10/04 Q1002 NOSIG=

TAF

TSSHRACB

ENGM 062300Z 0700/0724 33008KT 9999 FEW040 BKN080 TEMPO 0710/0721 SHRA BKN020 SCT025CB PROB40 TEMPO 0711/0717 4000 TSRA=

ENTO (04:50 UTC)

Sandefjord flygplats, Torp

METAR

ENTO 070450Z 25008KT 230V290 CAVOK 11/04 Q1003 NOSIG=

TAF

TSSHRACB

ENTO 062300Z 0700/0724 29008KT 9999 FEW040 BKN080 TEMPO 0711/0724 SHRA SCT025CB BKN030 PROB40 TEMPO 0712/0717 TS BECMG 0716/0718 35010KT=

ENCN (04:50 UTC)

Kristiansand flygplats, Kjevik

METAR

ENCN 070450Z 24009KT 9999 FEW025 11/07 Q1007=

TAF

CB

ENCN AMD 070412Z 0704/0712 27012KT 9999 FEW040 TEMPO 0704/0712 FEW020CB TEMPO 0709/0712 29018G28KT=

ENZV (04:50 UTC)

Stavanger-Sola flygplats

METAR

CB

ENZV 070450Z 33007KT 9999 FEW028 SCT038CB 09/06 Q1007 RESHRA TEMPO 32020KT SHRA=

TAF

SHRACBTCU

ENZV 062300Z 0700/0724 29015KT 9999 -SHRA FEW020TCU BKN030 TEMPO 0700/0715 SHRA SCT020CB BKN025 TEMPO 0700/0712 32020G30KT BECMG 0718/0720 34005KT=

ENHD (04:50 UTC)

Haugesund flygplats, Karmøy

METAR

SHRACB

ENHD 070450Z 28014KT 9999 VCSH FEW022CB BKN039 10/05 Q1006=

TAF

SHRACBTCU

ENHD 070200Z 0703/0710 29020KT 9999 -SHRA FEW020TCU BKN040 TEMPO 0703/0710 SHRA SCT020CB BKN030=

ENBR (04:50 UTC)

Bergen flygplats, Flesland

METAR

SHRACB

ENBR 070450Z 31008KT 9999 -SHRA FEW009 SCT014CB BKN027 07/06 Q1005 TEMPO SHRA BKN012 SCT020CB RMK WIND 1200FT 30012KT=

TAF

SHRACBTCU

ENBR 062300Z 0700/0724 VRB07KT 9999 -SHRA SCT020TCU BKN040 TEMPO 0700/0708 SHRA BKN012 SCT020CB BECMG 0709/0711 32012KT BECMG 0720/0722 VRB05KT=

ENBL (04:50 UTC)

Førde flygplats, Bringeland

METAR

FG

ENBL 070450Z 23004KT 9999 VCFG FEW001 SCT030 07/05 Q1004=

TAF

Ingen TAF hittades.

ENOV (04:50 UTC)

Ørsta-Volda flygplats, Hovden

METAR

ENOV 070450Z VRB01KT 9999 FEW005 SCT040 08/06 Q1005 RMK WIND 2175FT 21002KT=

TAF

Ingen TAF hittades.

ENML (04:50 UTC)

Molde flygplats, Årø

METAR

ENML 070450Z 29004KT 9999 FEW025 BKN040 10/06 Q1004=

TAF

Ingen TAF hittades.

ENKB (04:50 UTC)

Kristiansund flygplats, Kvernberget

METAR

SHRA

ENKB 070450Z 24008KT 9999 -SHRA FEW008 SCT031 BKN044 08/06 Q1004 RMK WIND 745FT 24012KT=

TAF

SHRACBTCU

ENKB 070200Z 0704/0712 25008KT 9999 -SHRA FEW015TCU BKN030 TEMPO 0704/0712 SHRA BKN012 SCT020CB=

ENRO (04:50 UTC)

Røros flygplats

METAR

ENRO 070450Z 31011KT 9999 BKN019 06/04 Q1001=

TAF

SHRA

ENRO 070200Z 0703/0712 33010KT 9999 -SHRA FEW010 BKN020 TEMPO 0703/0710 BKN012=

ENVA (04:50 UTC)

Trondheim flygplats, Værnes

METAR

ENVA 070450Z 26013KT 9999 SCT018 BKN029 11/08 Q1002 TEMPO SHRA BKN014 SCT020CB RMK WIND 670FT 27014KT=

TAF

SHRACB

ENVA 062300Z 0700/0724 29014KT 9999 -SHRA FEW020 BKN040 TEMPO 0700/0712 SHRA SCT012 SCT020CB BKN025 BECMG 0720/0722 24004KT=

ENOL (04:50 UTC)

Ørland flygplats

METAR

TCU

ENOL 070450Z 30010KT 9999 FEW012 SCT020TCU BKN050 11/08 Q1002 TEMPO SHRA BKN020CB=

TAF

SHRACB

ENOL 062300Z 0700/0724 33014KT 9999 FEW020 SCT040 BKN060 TEMPO 0700/0709 SHRA BKN014CB BECMG 0718/0720 25010KT TEMPO 0722/0724 SHRA=

ENRM (04:50 UTC)

Rørvik flygplats, Ryum

METAR

SHRA

ENRM 070450Z 35006KT 320V030 9999 VCSH FEW015 SCT030 BKN050 09/08 Q1001=

TAF

Ingen TAF hittades.

ENBN (04:50 UTC)

Brønnøysund flygplats, Brønnøy

METAR

SHRA

ENBN 070450Z 29005KT 9999 VCSH FEW006 BKN015 09/08 Q1000=

TAF

SHRATCU

ENBN 070200Z 0703/0712 32008KT 9999 -SHRA FEW010TCU BKN030 TEMPO 0703/0712 BKN014=

ENRA (04:50 UTC)

Mo i Rana flygplats, Røssvoll

METAR

ENRA 070450Z VRB01KT 9999 FEW025 BKN050 10/05 Q0998=

TAF

Ingen TAF hittades.

ENBO (04:50 UTC)

Bodö flygplats

METAR

SHRA

ENBO 070450Z 34006KT 9999 -SHRA FEW009 SCT018 BKN035 10/08 Q0998 TEMPO -SHRA BKN014=

TAF

RA

ENBO 062300Z 0700/0724 28008KT 9999 FEW020 BKN040 TEMPO 0703/0709 -RADZ BKN014 TEMPO 0720/0724 18010KT=

ENSH (04:50 UTC)

Svolvær flygplats, Helle

METAR

SHRA

ENSH 070450Z 31012KT 9999 VCSH FEW018 BKN053 10/07 Q0997 RMK WIND 150FT 31010KT=

TAF

Ingen TAF hittades.

ENAN (04:50 UTC)

Andøya flygplats

METAR

ENAN 070450Z 28010KT 9999 OVC007 09/08 Q0996=

TAF

ENAN 062300Z 0700/0724 27012KT 9999 FEW005 BKN020 BECMG 0718/0721 20008KT PROB40 0700/0709 BKN004=

ENEV (04:50 UTC)

Harstad-Narvik flygplats

METAR

RA

ENEV 070450Z 36003KT 9999 -RA FEW010 BKN025 10/08 Q0997 RMK WIND 1400FT 29007KT=

TAF

ENEV 070200Z 0703/0712 VRB08KT 9999 FEW010 BKN040 PROB40 0703/0712 BKN014=

ENDU (04:50 UTC)

Bardufoss flygplats

METAR

ENDU 070450Z 00000KT 9999 FEW003 SCT015 BKN025 09/08 Q0996 TEMPO BKN014 RMK WIND 1100FT 24007KT WIND 2200FT 28018KT=

TAF

ENDU COR 062300Z 0700/0724 26008KT 9999 FEW010 BKN040 PROB40 0700/0709 BKN014=

ENTC (04:50 UTC)

Tromsø flygplats

METAR

DZ

ENTC 070450Z 19008KT 9999 -DZ FEW004 SCT008 BKN020 08/07 Q0995 RMK WIND 2600FT 25012KT=

TAF

SHRA

ENTC 062300Z 0700/0724 24008KT 9999 -SHRA FEW005 BKN030 PROB40 0700/0712 BKN008=

ENAT (04:50 UTC)

Alta flygplats

METAR

ENAT 070450Z VRB02KT 9999 OVC033 10/07 Q0993 RMK WIND 700FT 14005KT=

TAF

ENAT 070200Z 0703/0712 VRB08KT 9999 FEW015 BKN040=

ENNA (04:50 UTC)

Lakselv flygplats

METAR

ENNA 070450Z 17004KT 130V200 9999 BKN024 11/07 Q0993 RMK WIND 1800FT 26015KT=

TAF

ENNA 062300Z 0700/0724 27008KT 9999 FEW015 BKN040=

ENHF (04:50 UTC)

Hammerfest flygplats

METAR

ENHF 070450Z 24010KT 9999 SCT006 BKN010 08/07 Q0992 RMK WIND 1254FT 27016KT=

TAF

RA

ENHF 070200Z 0703/0712 24015KT 9999 FEW005 BKN015 PROB40 0703/0712 4000 RADZ BKN008=

ENKR (04:50 UTC)

Kirkenes Airport, Høybuktmoen

METAR

ENKR 070450Z 27007KT 9999 BKN015 09/07 Q0993 RMK WIND 731FT 26011KT=

TAF

ENKR COR 070200Z 0703/0712 24008KT 9999 FEW010 BKN040=

ENLK (04:20 UTC)

Leknes Airport

METAR

SHRA

ENLK 070420Z 30009KT 9999 VCSH FEW010 BKN015 09/08 Q0998=

TAF

Ingen TAF hittades.

ENNO (04:50 UTC)

Notodden Airport, Tuven

METAR

ENNO 070450Z VRB01KT CAVOK 10/05 Q1004=

TAF

Ingen TAF hittades.

ENST (04:50 UTC)

Sandnessjøen Airport, Stokka

METAR

SHRA

ENST 070450Z 05005KT 9999 -SHRA FEW009 SCT012 BKN023 09/07 Q0999 RMK WIND 300FT 05005KT=

TAF

Ingen TAF hittades.

ENSB (04:50 UTC)

Svalbard Airport, Longyear

METAR

ENSB 070450Z 13017KT 9999 BKN025 11/06 Q1000 RMK WIND 1400FT 09022KT=

TAF

ENSB 062300Z 0700/0724 12008KT 9999 FEW015 BKN030 TEMPO 0700/0724 12020KT=

ENSR (04:50 UTC)

Sørkjosen Airport

METAR

ENSR 070450Z 34003KT 9999 FEW005 SCT020 BKN029 09/08 Q0994 RMK WIND 1119FT VRB02KT=

TAF

Ingen TAF hittades.

ENNM (04:50 UTC)

Namsos Airport, Høknesøra

METAR

SHRA

ENNM 070450Z 27005KT 240V350 9999 VCSH SCT015 BKN035 10/07 Q1001=

TAF

Ingen TAF hittades.